createdAt,value
2023-04-18T00:01:23.880Z,8.90
2023-04-18T00:03:51.100Z,8.32
2023-04-18T00:06:17.908Z,8.65
2023-04-18T00:08:44.387Z,8.43
2023-04-18T00:11:15.459Z,8.38
2023-04-18T00:13:41.963Z,8.50
2023-04-18T00:16:08.697Z,8.25
2023-04-18T00:18:36.908Z,9.27
2023-04-18T00:21:04.361Z,7.40
2023-04-18T00:23:31.156Z,8.00
2023-04-18T00:25:57.603Z,7.65
2023-04-18T00:28:24.044Z,7.72
2023-04-18T00:30:50.707Z,7.35
2023-04-18T00:33:18.592Z,6.60
2023-04-18T00:35:45.191Z,6.50
2023-04-18T00:38:11.648Z,6.47
2023-04-18T00:40:38.799Z,6.32
2023-04-18T00:43:07.692Z,6.30
2023-04-18T00:45:34.479Z,6.40
2023-04-18T00:48:01.492Z,6.38
2023-04-18T00:50:28.052Z,6.00
2023-04-18T00:52:54.654Z,6.00
2023-04-18T00:55:22.066Z,6.50
2023-04-18T00:57:48.467Z,6.57
2023-04-18T01:00:15.491Z,7.15
2023-04-18T01:02:42.320Z,6.53
2023-04-18T01:05:09.098Z,6.93
2023-04-18T01:07:39.538Z,6.68
2023-04-18T01:10:06.802Z,7.50
2023-04-18T01:12:33.250Z,8.10
2023-04-18T01:15:00.741Z,6.63
2023-04-18T01:17:28.449Z,7.03
2023-04-18T01:19:55.032Z,6.00
2023-04-18T01:22:21.515Z,6.53
2023-04-18T01:24:47.960Z,6.63
2023-04-18T01:27:14.508Z,6.25
2023-04-18T01:29:41.348Z,5.80
2023-04-18T01:32:08.042Z,6.25
2023-04-18T01:34:34.567Z,5.60
2023-04-18T01:37:00.990Z,5.32
2023-04-18T01:39:28.406Z,5.72
2023-04-18T01:41:54.842Z,6.05
2023-04-18T01:44:21.360Z,6.22
2023-04-18T01:46:47.860Z,6.43
2023-04-18T01:49:16.040Z,5.40
2023-04-18T01:51:43.123Z,5.78
2023-04-18T01:54:09.662Z,5.30
2023-04-18T01:56:36.374Z,5.57
2023-04-18T01:59:02.889Z,6.40
2023-04-18T02:01:29.430Z,6.20
2023-04-18T02:03:56.056Z,5.78
2023-04-18T02:06:22.712Z,5.60
2023-04-18T02:08:49.202Z,5.60
2023-04-18T02:11:15.691Z,5.73
2023-04-18T02:13:42.236Z,5.40
2023-04-18T02:16:12.946Z,5.88
2023-04-18T02:18:40.152Z,5.85
2023-04-18T02:21:07.229Z,5.15
2023-04-18T02:23:33.725Z,5.80
2023-04-18T02:26:00.272Z,5.47
2023-04-18T02:28:26.703Z,5.40
2023-04-18T02:30:53.177Z,5.63
2023-04-18T02:33:20.484Z,5.70
2023-04-18T02:35:47.224Z,5.20
2023-04-18T02:38:13.856Z,5.28
2023-04-18T02:40:40.368Z,6.18
2023-04-18T02:43:06.880Z,4.88
2023-04-18T02:45:33.482Z,5.55
2023-04-18T02:48:01.373Z,5.73
2023-04-18T02:50:29.105Z,5.45
2023-04-18T02:52:55.927Z,4.95
2023-04-18T02:55:22.802Z,5.18
2023-04-18T02:57:49.236Z,5.18
2023-04-18T03:00:16.080Z,5.70
2023-04-18T03:02:42.649Z,5.25
2023-04-18T03:05:09.383Z,5.22
2023-04-18T03:07:39.064Z,5.88
2023-04-18T03:10:05.966Z,5.80
2023-04-18T03:12:32.505Z,6.00
2023-04-18T03:14:58.986Z,5.70
2023-04-18T03:17:25.629Z,5.40
2023-04-18T03:19:52.116Z,5.55
2023-04-18T03:22:18.593Z,5.90
2023-04-18T03:24:45.093Z,5.77
2023-04-18T03:27:13.150Z,6.65
2023-04-18T03:29:41.145Z,6.55
2023-04-18T03:32:07.559Z,5.32
2023-04-18T03:34:34.087Z,7.03
2023-04-18T03:37:01.141Z,6.07
2023-04-18T03:39:27.588Z,6.68
2023-04-18T03:41:54.218Z,6.38
2023-04-18T03:44:20.635Z,6.55
2023-04-18T03:46:47.152Z,6.65
2023-04-18T03:49:13.655Z,6.50
2023-04-18T03:51:47.268Z,6.90
2023-04-18T03:54:14.706Z,5.95
2023-04-18T03:56:41.706Z,6.95
2023-04-18T03:59:08.359Z,6.50
2023-04-18T04:01:34.857Z,5.50
2023-04-18T04:04:02.850Z,6.40
2023-04-18T04:06:29.816Z,5.78
2023-04-18T04:08:56.240Z,6.55
2023-04-18T04:11:23.037Z,6.78
2023-04-18T04:13:49.563Z,6.33
2023-04-18T04:16:16.132Z,6.90
2023-04-18T04:18:42.614Z,6.57
2023-04-18T04:21:09.084Z,6.22
2023-04-18T04:23:35.501Z,6.20
2023-04-18T04:26:04.619Z,6.50
2023-04-18T04:28:31.560Z,6.95
2023-04-18T04:30:58.060Z,6.45
2023-04-18T04:33:28.722Z,7.03
2023-04-18T04:35:56.257Z,6.50
2023-04-18T04:38:25.783Z,6.60
2023-04-18T04:40:52.905Z,6.03
2023-04-18T04:43:20.578Z,6.15
2023-04-18T04:45:51.612Z,6.43
2023-04-18T04:48:19.952Z,7.20
2023-04-18T04:50:57.687Z,6.50
2023-04-18T04:53:27.916Z,6.88
2023-04-18T04:55:54.349Z,7.40
2023-04-18T04:58:20.868Z,6.78
2023-04-18T05:00:47.923Z,6.40
2023-04-18T05:03:14.584Z,6.90
2023-04-18T05:05:41.390Z,7.18
2023-04-18T05:08:07.992Z,6.82
2023-04-18T05:10:37.088Z,6.68
2023-04-18T05:13:04.268Z,7.03
2023-04-18T05:15:31.624Z,6.70
2023-04-18T05:17:58.823Z,6.53
2023-04-18T05:20:25.527Z,6.55
2023-04-18T05:22:52.111Z,6.53
2023-04-18T05:25:19.028Z,6.40
2023-04-18T05:27:46.923Z,6.30
2023-04-18T05:30:13.575Z,7.05
2023-04-18T05:32:40.255Z,6.57
2023-04-18T05:35:07.839Z,7.40
2023-04-18T05:37:34.423Z,6.30
2023-04-18T05:40:01.293Z,7.27
2023-04-18T05:42:30.029Z,6.13
2023-04-18T05:44:56.586Z,6.70
2023-04-18T05:47:26.688Z,7.22
2023-04-18T05:49:53.176Z,7.43
2023-04-18T05:52:19.597Z,6.70
2023-04-18T05:54:47.608Z,6.90
2023-04-18T05:57:14.128Z,7.80
2023-04-18T05:59:40.653Z,7.82
2023-04-18T06:02:13.196Z,7.25
2023-04-18T06:04:41.804Z,7.33
2023-04-18T06:07:09.115Z,6.63
2023-04-18T06:09:35.817Z,7.50
2023-04-18T06:12:02.420Z,7.10
2023-04-18T06:14:28.905Z,6.80
2023-04-18T06:16:55.586Z,7.23
2023-04-18T06:19:22.203Z,6.85
2023-04-18T06:21:49.087Z,7.35
2023-04-18T06:24:15.758Z,7.97
2023-04-18T06:26:42.480Z,7.13
2023-04-18T06:29:08.955Z,8.33
2023-04-18T06:31:35.754Z,7.03
2023-04-18T06:34:02.325Z,6.88
2023-04-18T06:36:29.213Z,6.43
2023-04-18T06:38:55.650Z,7.10
2023-04-18T06:41:22.786Z,6.50
2023-04-18T06:44:02.105Z,6.13
2023-04-18T06:46:36.114Z,6.13
2023-04-18T06:49:02.628Z,6.63
2023-04-18T06:51:29.272Z,6.47
2023-04-18T06:53:55.912Z,6.67
2023-04-18T06:56:22.884Z,6.00
2023-04-18T06:58:50.156Z,6.82
2023-04-18T07:01:16.766Z,5.95
2023-04-18T07:03:43.513Z,6.50
2023-04-18T07:06:10.962Z,5.93
2023-04-18T07:08:38.004Z,5.78
2023-04-18T07:11:05.403Z,6.25
2023-04-18T07:13:32.018Z,6.18
2023-04-18T07:15:58.595Z,5.80
2023-04-18T07:18:36.694Z,6.10
2023-04-18T07:21:07.432Z,6.68
2023-04-18T07:23:34.312Z,5.60
2023-04-18T07:26:02.603Z,5.00
2023-04-18T07:28:31.987Z,6.10
2023-04-18T07:30:59.168Z,5.40
2023-04-18T07:33:25.833Z,6.28
2023-04-18T07:35:53.038Z,5.63
2023-04-18T07:38:19.662Z,6.15
2023-04-18T07:40:47.653Z,5.43
2023-04-18T07:43:14.096Z,5.63
2023-04-18T07:45:43.078Z,5.20
2023-04-18T07:48:09.667Z,6.40
2023-04-18T07:50:36.133Z,5.90
2023-04-18T07:53:03.339Z,5.47
2023-04-18T07:55:29.970Z,5.40
2023-04-18T07:57:56.395Z,5.35
2023-04-18T08:00:22.894Z,4.97
2023-04-18T08:02:49.485Z,5.18
2023-04-18T08:05:16.803Z,5.47
2023-04-18T08:07:43.390Z,5.20
2023-04-18T08:10:10.050Z,4.80
2023-04-18T08:12:36.779Z,5.03
2023-04-18T08:15:05.136Z,5.18
2023-04-18T08:17:33.133Z,5.18
2023-04-18T08:20:00.838Z,4.90
2023-04-18T08:22:27.304Z,5.10
2023-04-18T08:27:23.932Z,4.53
2023-04-18T08:29:50.465Z,4.78
2023-04-18T08:32:16.936Z,5.23
2023-04-18T08:34:43.481Z,4.85
2023-04-18T08:37:10.183Z,4.63
2023-04-18T08:39:37.044Z,5.82
2023-04-18T08:42:06.303Z,5.50
2023-04-18T08:44:35.448Z,4.77
2023-04-18T08:47:02.061Z,4.95
2023-04-18T08:49:28.704Z,5.03
2023-04-18T08:51:57.513Z,4.75
2023-04-18T08:54:25.079Z,4.53
2023-04-18T08:57:07.515Z,4.13
2023-04-18T08:59:35.594Z,4.25
2023-04-18T09:02:06.766Z,4.82
2023-04-18T09:04:37.479Z,5.43
2023-04-18T09:07:09.579Z,4.18
2023-04-18T09:09:51.340Z,4.63
2023-04-18T09:12:22.457Z,4.63
2023-04-18T09:14:59.668Z,5.20
2023-04-18T09:17:38.850Z,5.85
2023-04-18T09:20:06.290Z,4.35
2023-04-18T09:22:58.077Z,4.60
2023-04-18T09:25:29.145Z,5.30
2023-04-18T09:28:01.873Z,4.40
2023-04-18T09:30:33.034Z,4.68
2023-04-18T09:33:01.506Z,4.45
2023-04-18T09:35:28.472Z,4.87
2023-04-18T09:37:55.548Z,5.38
2023-04-18T09:40:23.379Z,4.80
2023-04-18T09:42:53.168Z,5.00
2023-04-18T09:45:20.586Z,4.88
2023-04-18T09:47:47.238Z,5.00
2023-04-18T09:50:16.574Z,4.53
2023-04-18T09:52:44.327Z,4.68
2023-04-18T09:55:14.268Z,4.95
2023-04-18T09:57:44.580Z,4.53
2023-04-18T10:00:24.811Z,4.20
2023-04-18T10:03:05.055Z,3.97
2023-04-18T10:05:34.163Z,4.43
2023-04-18T10:08:02.427Z,4.40
2023-04-18T10:10:30.850Z,4.40
2023-04-18T10:13:00.187Z,5.00
2023-04-18T10:15:29.171Z,5.03
2023-04-18T10:18:14.692Z,4.60
2023-04-18T10:20:42.349Z,4.03
2023-04-18T10:23:36.539Z,4.53
2023-04-18T10:26:04.818Z,4.23
2023-04-18T10:28:54.648Z,5.07
2023-04-18T10:31:23.487Z,5.50
2023-04-18T10:36:28.354Z,4.88
2023-04-18T10:39:23.419Z,3.77
2023-04-18T10:41:52.086Z,3.75
2023-04-18T10:44:24.932Z,3.97
2023-04-18T10:46:51.489Z,3.60
2023-04-18T10:49:27.280Z,4.00
2023-04-18T10:51:59.452Z,3.83
2023-04-18T10:54:30.692Z,3.40
2023-04-18T10:56:59.352Z,3.63
2023-04-18T10:59:26.958Z,3.75
2023-04-18T11:02:10.708Z,3.80
2023-04-18T11:04:38.017Z,4.13
2023-04-18T11:07:05.125Z,4.15
2023-04-18T11:09:31.868Z,4.68
2023-04-18T11:12:09.345Z,4.30
2023-04-18T11:14:41.639Z,4.35
2023-04-18T11:17:41.215Z,4.73
2023-04-18T11:20:13.679Z,5.10
2023-04-18T11:22:53.831Z,4.63
2023-04-18T11:25:25.774Z,5.20
2023-04-18T11:27:52.546Z,4.57
2023-04-18T11:30:19.186Z,5.10
2023-04-18T11:32:45.780Z,5.05
2023-04-18T11:35:13.852Z,5.18
2023-04-18T11:37:41.575Z,5.53
2023-04-18T11:40:12.324Z,5.78
2023-04-18T11:42:40.167Z,5.00
2023-04-18T11:45:12.680Z,5.40
2023-04-18T11:47:39.982Z,5.63
2023-04-18T11:50:08.547Z,5.25
2023-04-18T11:52:36.435Z,5.78
2023-04-18T11:55:23.938Z,5.90
2023-04-18T11:57:57.640Z,5.65
2023-04-18T12:00:35.929Z,6.10
2023-04-18T12:03:04.878Z,5.53
2023-04-18T12:05:33.720Z,5.40
2023-04-18T12:08:20.377Z,5.83
2023-04-18T12:10:50.579Z,5.90
2023-04-18T12:13:18.357Z,6.07
2023-04-18T12:15:46.593Z,6.00
2023-04-18T12:18:15.256Z,6.47
2023-04-18T12:20:46.685Z,7.33
2023-04-18T12:23:31.313Z,6.25
2023-04-18T12:26:11.451Z,6.60
2023-04-18T12:28:37.999Z,7.35
2023-04-18T12:31:07.955Z,7.43
2023-04-18T12:33:36.726Z,6.73
2023-04-18T12:36:05.787Z,7.05
2023-04-18T12:38:32.282Z,6.85
2023-04-18T12:40:58.790Z,6.57
2023-04-18T12:43:25.776Z,6.55
2023-04-18T12:45:56.447Z,7.13
2023-04-18T12:48:23.356Z,7.30
2023-04-18T12:50:49.830Z,7.32
2023-04-18T12:53:16.292Z,6.90
2023-04-18T12:55:42.952Z,6.70
2023-04-18T12:58:09.424Z,7.47
2023-04-18T13:00:36.115Z,7.18
2023-04-18T13:03:02.982Z,6.68
2023-04-18T13:05:33.578Z,7.35
2023-04-18T13:10:31.052Z,7.70
2023-04-18T13:12:57.551Z,7.72
2023-04-18T13:15:24.120Z,7.78
2023-04-18T13:17:50.717Z,7.60
2023-04-18T13:20:17.329Z,8.18
2023-04-18T13:22:44.893Z,7.77
2023-04-18T13:25:11.886Z,7.95
2023-04-18T13:27:41.788Z,8.52
2023-04-18T13:30:12.340Z,7.50
2023-04-18T13:32:40.364Z,7.68
2023-04-18T13:35:09.111Z,8.10
2023-04-18T13:37:36.717Z,7.38
2023-04-18T13:40:05.490Z,7.82
2023-04-18T13:42:37.112Z,7.55
2023-04-18T13:45:04.414Z,9.13
2023-04-18T13:47:31.066Z,8.27
2023-04-18T13:49:57.954Z,7.95
2023-04-18T13:52:25.080Z,8.02
2023-04-18T13:54:51.549Z,8.65
2023-04-18T13:57:18.041Z,8.18
2023-04-18T13:59:44.630Z,7.90
2023-04-18T14:02:11.364Z,7.70
2023-04-18T14:04:38.540Z,8.57
2023-04-18T14:07:06.362Z,7.10
2023-04-18T14:09:33.088Z,7.65
2023-04-18T14:11:59.682Z,7.40
2023-04-18T14:14:26.277Z,7.68
2023-04-18T14:16:53.759Z,8.25
2023-04-18T14:19:20.516Z,7.68
2023-04-18T14:21:47.873Z,8.00
2023-04-18T14:24:14.891Z,8.33
2023-04-18T14:26:41.981Z,7.82
2023-04-18T14:29:08.477Z,8.30
2023-04-18T14:31:35.241Z,7.55
2023-04-18T14:34:02.045Z,7.85
2023-04-18T14:36:28.596Z,8.10
2023-04-18T14:38:55.150Z,7.90
2023-04-18T14:41:21.803Z,7.60
2023-04-18T14:43:48.789Z,7.55
2023-04-18T14:46:18.853Z,7.40
2023-04-18T14:48:46.869Z,7.20
2023-04-18T14:51:15.914Z,7.40
2023-04-18T14:53:42.739Z,7.55
2023-04-18T14:56:09.500Z,8.13
2023-04-18T14:58:36.424Z,7.28
2023-04-18T15:01:04.174Z,7.10
2023-04-18T15:03:30.958Z,7.78
2023-04-18T15:05:57.763Z,6.68
2023-04-18T15:08:24.267Z,7.40
2023-04-18T15:10:50.752Z,6.93
2023-04-18T15:13:17.367Z,6.57
2023-04-18T15:15:51.342Z,7.03
2023-04-18T15:18:17.796Z,6.43
2023-04-18T15:20:44.293Z,7.30
2023-04-18T15:23:13.641Z,6.93
2023-04-18T15:25:41.206Z,6.77
2023-04-18T15:28:07.752Z,6.70
2023-04-18T15:30:34.482Z,6.57
2023-04-18T15:33:02.447Z,6.32
2023-04-18T15:35:29.130Z,6.32
2023-04-18T15:37:56.503Z,18.27
2023-04-18T15:40:23.578Z,11.23
2023-04-18T15:42:50.989Z,8.52
2023-04-18T15:45:17.478Z,7.30
2023-04-18T15:47:44.244Z,6.38
2023-04-18T15:50:11.222Z,6.77
2023-04-18T15:52:38.209Z,6.20
2023-04-18T15:55:05.318Z,6.63
2023-04-18T15:57:32.359Z,6.63
2023-04-18T15:59:59.601Z,7.13
2023-04-18T16:02:26.569Z,6.57
2023-04-18T16:04:53.186Z,6.82
2023-04-18T16:07:19.854Z,8.55
2023-04-18T16:09:46.378Z,6.60
2023-04-18T16:12:12.800Z,7.38
2023-04-18T16:14:39.248Z,6.53
2023-04-18T16:17:05.734Z,6.40
2023-04-18T16:19:33.383Z,6.70
2023-04-18T16:22:01.609Z,7.32
2023-04-18T16:24:30.126Z,6.47
2023-04-18T16:26:56.765Z,6.37
2023-04-18T16:29:23.893Z,6.20
2023-04-18T16:31:51.900Z,6.25
2023-04-18T16:34:18.845Z,6.25
2023-04-18T16:36:45.383Z,6.32
2023-04-18T16:39:12.240Z,6.53
2023-04-18T16:41:38.848Z,6.35
2023-04-18T16:44:05.317Z,7.10
2023-04-18T16:46:32.434Z,5.80
2023-04-18T16:49:01.505Z,6.65
2023-04-18T16:51:28.895Z,5.93
2023-04-18T16:53:55.339Z,6.15
2023-04-18T16:56:21.925Z,6.57
2023-04-18T16:58:50.846Z,6.68
2023-04-18T17:01:17.328Z,6.45
2023-04-18T17:03:44.691Z,6.70
2023-04-18T17:06:11.303Z,7.00
2023-04-18T17:08:37.915Z,6.55
2023-04-18T17:11:04.871Z,6.18
2023-04-18T17:13:31.627Z,5.72
2023-04-18T17:15:58.703Z,5.97
2023-04-18T17:18:25.600Z,5.82
2023-04-18T17:20:52.601Z,5.70
2023-04-18T17:23:19.474Z,5.70
2023-04-18T17:25:46.280Z,6.03
2023-04-18T17:28:13.935Z,6.20
2023-04-18T17:30:44.394Z,6.38
2023-04-18T17:33:11.168Z,5.93
2023-04-18T17:35:41.394Z,6.80
2023-04-18T17:38:10.534Z,6.35
2023-04-18T17:40:37.429Z,6.30
2023-04-18T17:43:03.950Z,6.50
2023-04-18T17:45:30.873Z,5.97
2023-04-18T17:47:59.483Z,6.38
2023-04-18T17:50:26.191Z,6.43
2023-04-18T17:52:53.268Z,5.80
2023-04-18T17:55:19.962Z,6.68
2023-04-18T17:57:46.733Z,6.95
2023-04-18T18:00:14.487Z,6.70
2023-04-18T18:02:42.481Z,6.30
2023-04-18T18:05:13.736Z,6.30
2023-04-18T18:07:43.114Z,7.75
2023-04-18T18:10:11.046Z,6.72
2023-04-18T18:12:39.437Z,6.72
2023-04-18T18:15:07.784Z,5.95
2023-04-18T18:17:34.333Z,6.17
2023-04-18T18:20:00.846Z,6.32
2023-04-18T18:22:28.106Z,6.50
2023-04-18T18:24:54.870Z,6.75
2023-04-18T18:27:21.352Z,6.75
2023-04-18T18:29:50.750Z,6.37
2023-04-18T18:32:17.315Z,6.05
2023-04-18T18:34:43.896Z,6.28
2023-04-18T18:37:10.415Z,7.30
2023-04-18T18:39:37.247Z,10.45
2023-04-18T18:42:03.972Z,7.07
2023-04-18T18:44:30.657Z,7.10
2023-04-18T18:46:58.748Z,7.32
2023-04-18T18:49:26.388Z,7.22
2023-04-18T18:51:53.275Z,7.30
2023-04-18T18:54:21.013Z,7.27
2023-04-18T18:56:47.567Z,7.45
2023-04-18T18:59:15.654Z,7.03
2023-04-18T19:01:42.586Z,6.75
2023-04-18T19:04:09.690Z,6.90
2023-04-18T19:06:36.363Z,6.17
2023-04-18T19:09:02.880Z,6.50
2023-04-18T19:11:29.626Z,5.97
2023-04-18T19:13:56.117Z,6.97
2023-04-18T19:16:22.731Z,6.25
2023-04-18T19:18:50.487Z,6.40
2023-04-18T19:21:17.380Z,6.57
2023-04-18T19:23:43.936Z,6.53
2023-04-18T19:26:10.548Z,10.93
2023-04-18T19:28:37.003Z,6.30
2023-04-18T19:31:03.747Z,6.00
2023-04-18T19:33:30.374Z,5.70
2023-04-18T19:35:56.965Z,5.05
2023-04-18T19:38:23.468Z,5.05
2023-04-18T19:40:49.901Z,4.60
2023-04-18T19:43:16.432Z,4.87
2023-04-18T19:45:42.908Z,4.93
2023-04-18T19:48:09.557Z,5.05
2023-04-18T19:50:39.399Z,5.75
2023-04-18T19:53:06.412Z,4.72
2023-04-18T19:55:32.925Z,5.20
2023-04-18T19:57:59.879Z,4.85
2023-04-18T20:00:26.407Z,5.22
2023-04-18T20:02:53.461Z,5.30
2023-04-18T20:05:20.409Z,5.53
2023-04-18T20:07:47.018Z,4.97
2023-04-18T20:10:13.593Z,5.72
2023-04-18T20:12:40.105Z,5.10
2023-04-18T20:15:07.320Z,5.60
2023-04-18T20:17:34.734Z,5.78
2023-04-18T20:20:01.737Z,5.83
2023-04-18T20:22:28.226Z,5.28
2023-04-18T20:24:57.173Z,6.22
2023-04-18T20:27:24.162Z,6.05
2023-04-18T20:29:50.760Z,5.20
2023-04-18T20:32:17.223Z,5.30
2023-04-18T20:34:43.816Z,5.50
2023-04-18T20:37:10.330Z,5.70
2023-04-18T20:39:38.241Z,5.35
2023-04-18T20:42:04.897Z,5.28
2023-04-18T20:44:34.321Z,5.57
2023-04-18T20:47:03.488Z,4.70
2023-04-18T20:49:30.110Z,5.00
2023-04-18T20:51:56.639Z,5.57
2023-04-18T20:54:23.384Z,5.15
2023-04-18T20:56:49.918Z,4.73
2023-04-18T20:59:16.392Z,5.15
2023-04-18T21:01:42.917Z,4.18
2023-04-18T21:04:09.690Z,5.32
2023-04-18T21:06:36.745Z,4.70
2023-04-18T21:09:03.871Z,4.83
2023-04-18T21:11:30.394Z,4.95
2023-04-18T21:13:56.882Z,4.75
2023-04-18T21:16:24.099Z,4.18
2023-04-18T21:19:12.717Z,4.45
2023-04-18T21:21:41.081Z,4.60
2023-04-18T21:24:07.884Z,5.60
2023-04-18T21:26:34.620Z,4.38
2023-04-18T21:29:04.170Z,4.57
2023-04-18T21:31:39.162Z,5.03
2023-04-18T21:34:11.803Z,4.53
2023-04-18T21:36:52.283Z,4.30
2023-04-18T21:39:21.990Z,4.57
2023-04-18T21:42:06.980Z,4.40
2023-04-18T21:44:39.441Z,4.30
2023-04-18T21:47:16.411Z,4.53
2023-04-18T21:49:50.841Z,4.30
2023-04-18T21:52:26.849Z,4.40
2023-04-18T21:54:55.990Z,5.07
2023-04-18T21:57:29.276Z,4.88
2023-04-18T22:00:02.646Z,4.17
2023-04-18T22:02:39.991Z,4.32
2023-04-18T22:05:11.813Z,4.38
2023-04-18T22:07:57.304Z,4.25
2023-04-18T22:10:33.832Z,4.53
2023-04-18T22:13:07.059Z,4.40
2023-04-18T22:15:39.399Z,4.78
2023-04-18T22:18:21.055Z,4.40
2023-04-18T22:20:57.897Z,3.83
2023-04-18T22:23:43.073Z,4.45
2023-04-18T22:26:12.496Z,4.50
2023-04-18T22:28:46.746Z,4.10
2023-04-18T22:31:20.960Z,4.10
2023-04-18T22:33:53.234Z,4.63
2023-04-18T22:36:26.369Z,4.72
2023-04-18T22:39:06.232Z,4.00
2023-04-18T22:41:35.370Z,4.25
2023-04-18T22:44:07.033Z,4.57
2023-04-18T22:46:38.170Z,4.43
2023-04-18T22:49:32.272Z,4.22
2023-04-18T22:52:16.258Z,4.50
2023-04-18T22:54:55.479Z,4.30
2023-04-18T22:57:24.887Z,4.05
2023-04-18T23:00:00.147Z,4.35
2023-04-18T23:02:34.478Z,4.47
2023-04-18T23:05:11.723Z,5.20
2023-04-18T23:07:47.585Z,4.75
2023-04-18T23:10:23.392Z,4.22
2023-04-18T23:12:54.183Z,4.50
2023-04-18T23:15:29.436Z,5.55
2023-04-18T23:18:03.917Z,4.50
2023-04-18T23:20:38.566Z,4.07
2023-04-18T23:23:15.337Z,4.88
2023-04-18T23:26:13.486Z,4.25
2023-04-18T23:28:42.256Z,5.80
2023-04-18T23:31:18.012Z,5.30
2023-04-18T23:33:51.401Z,4.75
2023-04-18T23:36:25.480Z,4.55
2023-04-18T23:38:58.154Z,5.45
2023-04-18T23:41:24.819Z,4.82
2023-04-18T23:43:51.544Z,5.40
2023-04-18T23:46:20.604Z,4.45
2023-04-18T23:48:57.755Z,4.95
2023-04-18T23:51:27.150Z,5.20
2023-04-18T23:54:01.398Z,6.05
2023-04-18T23:56:35.967Z,5.10
2023-04-18T23:59:07.144Z,5.50
